createdAt,value
2023-05-22T00:00:02.507Z,21.2
2023-05-22T00:10:04.599Z,21.2
2023-05-22T00:20:06.413Z,21.2
2023-05-22T00:30:08.329Z,21.1
2023-05-22T00:40:10.375Z,21.1
2023-05-22T00:50:12.906Z,21.1
2023-05-22T01:00:15.400Z,21.1
2023-05-22T01:10:17.584Z,21
2023-05-22T01:20:19.355Z,21
2023-05-22T01:30:21.676Z,21
2023-05-22T01:40:24.255Z,21
2023-05-22T01:50:26.579Z,21
2023-05-22T02:00:28.618Z,20.9
2023-05-22T02:10:31.270Z,20.9
2023-05-22T02:20:33.197Z,20.9
2023-05-22T02:30:34.939Z,20.9
2023-05-22T02:40:37.207Z,20.9
2023-05-22T02:50:39.372Z,20.9
2023-05-22T03:00:41.809Z,20.9
2023-05-22T03:10:44.038Z,20.9
2023-05-22T03:20:46.638Z,20.8
2023-05-22T03:30:48.350Z,20.8
2023-05-22T03:40:50.955Z,20.8
2023-05-22T03:50:52.992Z,20.8
2023-05-22T04:00:54.809Z,20.8
2023-05-22T04:10:57.066Z,20.8
2023-05-22T04:20:59.108Z,20.8
2023-05-22T04:31:01.626Z,20.8
2023-05-22T04:41:03.833Z,20.9
2023-05-22T04:51:05.845Z,20.9
2023-05-22T05:01:08.113Z,21
2023-05-22T05:11:10.640Z,21
2023-05-22T05:21:13.109Z,21.1
2023-05-22T05:31:15.477Z,21.3
2023-05-22T05:41:17.328Z,21.4
2023-05-22T05:51:19.943Z,21.6
2023-05-22T06:01:22.593Z,21.6
2023-05-22T06:21:27.308Z,22.4
2023-05-22T06:31:29.773Z,22.8
2023-05-22T06:41:31.654Z,22.8
2023-05-22T06:51:33.486Z,23.1
2023-05-22T07:01:36.038Z,23.6
2023-05-22T07:11:38.050Z,23.9
2023-05-22T07:21:40.688Z,24.6
2023-05-22T07:31:42.650Z,25.1
2023-05-22T07:41:44.977Z,25.6
2023-05-22T07:51:47.019Z,26
2023-05-22T08:01:48.976Z,26.4
2023-05-22T08:11:50.778Z,26.5
2023-05-22T08:21:53.292Z,26.7
2023-05-22T08:31:55.537Z,26.9
2023-05-22T08:41:58.083Z,26.9
2023-05-22T08:51:59.993Z,26.8
2023-05-22T09:02:02.830Z,26.8
2023-05-22T09:12:04.129Z,26.7
2023-05-22T09:22:06.374Z,26.7
2023-05-22T09:32:08.818Z,26.5
2023-05-22T09:42:10.677Z,26.4
2023-05-22T09:52:12.499Z,26.2
2023-05-22T10:02:14.993Z,25.9
2023-05-22T10:12:16.802Z,25.7
2023-05-22T10:22:19.415Z,25.6
2023-05-22T10:32:21.749Z,25.4
2023-05-22T10:42:23.824Z,25.4
2023-05-22T10:52:25.937Z,25.4
2023-05-22T11:02:28.506Z,25.2
2023-05-22T11:12:30.750Z,25.1
2023-05-22T11:32:35.132Z,25
2023-05-22T11:42:37.000Z,24.8
2023-05-22T12:02:41.522Z,24.8
2023-05-22T12:03:03.508Z,24.8
2023-05-22T12:12:51.266Z,24.8
2023-05-22T12:32:56.240Z,24.6
2023-05-22T12:42:58.354Z,24.5
2023-05-22T12:53:00.661Z,24.5
2023-05-22T13:13:05.054Z,24.5
2023-05-22T13:23:07.218Z,24.5
2023-05-22T13:33:09.256Z,24.5
2023-05-22T13:53:13.543Z,24.4
2023-05-22T14:13:17.711Z,24.4
2023-05-22T14:33:22.224Z,24.3
2023-05-22T15:13:30.567Z,24.3
2023-05-22T15:33:35.312Z,24.2
2023-05-22T15:43:37.494Z,24.2
2023-05-22T16:03:42.366Z,24.1
2023-05-22T16:23:46.748Z,24
2023-05-22T16:43:50.409Z,23.8
2023-05-22T16:53:52.228Z,23.7
2023-05-22T17:03:54.102Z,23.7
2023-05-22T17:13:56.249Z,23.7
2023-05-22T17:23:58.102Z,23.7
2023-05-22T17:44:01.907Z,23.7
2023-05-22T18:04:06.877Z,23.6
2023-05-22T18:14:09.438Z,23.6
2023-05-22T18:24:11.301Z,23.5
2023-05-22T18:44:15.087Z,23.5
2023-05-22T18:54:17.687Z,23.5
2023-05-22T19:04:19.561Z,23.4
2023-05-22T19:14:21.941Z,23.3
2023-05-22T19:24:24.444Z,23.3
2023-05-22T19:34:26.556Z,23.2
2023-05-22T19:44:28.526Z,23.1
2023-05-22T19:54:31.120Z,23.1
2023-05-22T20:04:32.839Z,23
2023-05-22T20:14:34.859Z,23
2023-05-22T20:24:36.552Z,22.9
2023-05-22T20:34:38.360Z,22.9
2023-05-22T20:44:40.139Z,22.8
2023-05-22T20:54:42.792Z,22.7
2023-05-22T21:04:45.300Z,22.6
2023-05-22T21:14:47.214Z,22.6
2023-05-22T21:24:49.198Z,22.5
2023-05-22T21:34:51.347Z,22.5
2023-05-22T21:44:53.640Z,22.5
2023-05-22T21:54:55.869Z,22.4
2023-05-22T22:04:58.147Z,22.4
2023-05-22T22:15:00.630Z,22.3
2023-05-22T22:25:02.477Z,22.3
2023-05-22T22:35:04.919Z,22.3
2023-05-22T22:45:07.417Z,22.2
2023-05-22T22:55:09.986Z,22.2
2023-05-22T23:05:12.705Z,22.1
2023-05-22T23:25:17.216Z,22.1
2023-05-22T23:35:19.910Z,22
2023-05-22T23:45:22.146Z,21.9
2023-05-22T23:55:24.312Z,21.9
